Time,TemperatureF,DewpointF,PressureIn,WindDirection,WindDirectionDegrees,WindSpeedMPH,WindSpeedGustMPH,Humidity,HourlyPrecipIn,Conditions,Clouds,dailyrainin,SoftwareType,DateUTC
2013-07-27 00:02:00,83.0,-99.9,29.93,SSE,162,22.0,26.0,-999,-99.99,,,-99.99,,2013-07-27 05:02:00,
2013-07-27 00:12:00,83.0,-99.9,29.93,SSE,162,24.0,27.0,-999,-99.99,,,-99.99,,2013-07-27 05:12:00,
2013-07-27 00:22:00,83.0,-99.9,29.93,SSE,162,24.0,27.0,-999,-99.99,,,-99.99,,2013-07-27 05:22:00,
2013-07-27 00:33:00,83.0,-99.9,29.93,SSE,167,24.0,30.0,-999,-99.99,,,-99.99,,2013-07-27 05:33:00,
2013-07-27 00:43:00,83.0,-99.9,29.93,SSE,166,26.0,30.0,-999,-99.99,,,-99.99,,2013-07-27 05:43:00,
2013-07-27 00:52:00,83.0,-99.9,29.92,SSE,166,27.0,30.0,-999,-99.99,,,-99.99,,2013-07-27 05:52:00,
2013-07-27 01:03:00,83.0,-99.9,29.92,SSE,168,28.0,31.0,-999,-99.99,,,-99.99,,2013-07-27 06:03:00,
2013-07-27 01:12:00,83.0,-99.9,29.91,SSE,168,26.0,31.0,-999,-99.99,,,-99.99,,2013-07-27 06:12:00,
2013-07-27 01:33:00,83.0,-99.9,29.91,South,170,26.0,32.0,-999,-99.99,,,-99.99,,2013-07-27 06:33:00,
2013-07-27 01:43:00,83.0,-99.9,29.91,South,169,26.0,31.0,-999,-99.99,,,-99.99,,2013-07-27 06:43:00,
2013-07-27 01:52:00,82.0,-99.9,29.91,South,172,26.0,29.0,-999,-99.99,,,-99.99,,2013-07-27 06:52:00,
2013-07-27 02:02:00,82.0,-99.9,29.91,South,173,25.0,29.0,-999,-99.99,,,-99.99,,2013-07-27 07:02:00,
2013-07-27 02:12:00,82.0,-99.9,29.91,South,173,25.0,29.0,-999,-99.99,,,-99.99,,2013-07-27 07:12:00,
2013-07-27 02:34:00,82.0,-99.9,29.91,South,173,24.0,28.0,-999,-99.99,,,-99.99,,2013-07-27 07:34:00,
2013-07-27 02:44:00,82.0,-99.9,29.92,South,171,23.0,28.0,-999,-99.99,,,-99.99,,2013-07-27 07:44:00,
2013-07-27 02:53:00,82.0,-99.9,29.91,South,173,24.0,27.0,-999,-99.99,,,-99.99,,2013-07-27 07:53:00,
2013-07-27 03:02:00,82.0,-99.9,29.91,South,175,22.0,26.0,-999,-99.99,,,-99.99,,2013-07-27 08:02:00,
2013-07-27 03:12:00,82.0,-99.9,29.91,South,176,23.0,25.0,-999,-99.99,,,-99.99,,2013-07-27 08:12:00,
2013-07-27 03:32:00,82.0,-99.9,29.91,South,179,21.0,25.0,-999,-99.99,,,-99.99,,2013-07-27 08:32:00,
2013-07-27 03:43:00,82.0,-99.9,29.90,South,180,21.0,26.0,-999,-99.99,,,-99.99,,2013-07-27 08:43:00,
2013-07-27 03:53:00,82.0,-99.9,29.90,South,178,22.0,26.0,-999,-99.99,,,-99.99,,2013-07-27 08:53:00,
2013-07-27 04:02:00,82.0,-99.9,29.90,South,175,22.0,26.0,-999,-99.99,,,-99.99,,2013-07-27 09:02:00,
2013-07-27 04:12:00,82.0,-99.9,29.89,South,177,21.0,26.0,-999,-99.99,,,-99.99,,2013-07-27 09:12:00,
2013-07-27 04:33:00,82.0,-99.9,29.88,South,180,23.0,26.0,-999,-99.99,,,-99.99,,2013-07-27 09:33:00,
2013-07-27 04:44:00,81.0,-99.9,29.87,South,177,23.0,27.0,-999,-99.99,,,-99.99,,2013-07-27 09:44:00,
2013-07-27 04:52:00,82.0,-99.9,29.87,South,181,21.0,24.0,-999,-99.99,,,-99.99,,2013-07-27 09:52:00,
2013-07-27 05:02:00,82.0,-99.9,29.87,South,177,21.0,25.0,-999,-99.99,,,-99.99,,2013-07-27 10:02:00,
2013-07-27 05:12:00,81.0,-99.9,29.87,South,175,23.0,26.0,-999,-99.99,,,-99.99,,2013-07-27 10:12:00,
2013-07-27 05:32:00,81.0,-99.9,29.86,South,176,23.0,26.0,-999,-99.99,,,-99.99,,2013-07-27 10:32:00,
2013-07-27 05:44:00,81.0,-99.9,29.86,South,175,22.0,26.0,-999,-99.99,,,-99.99,,2013-07-27 10:44:00,
2013-07-27 05:52:00,82.0,-99.9,29.87,South,175,23.0,26.0,-999,-99.99,,,-99.99,,2013-07-27 10:52:00,
2013-07-27 06:02:00,81.0,-99.9,29.87,South,173,23.0,25.0,-999,-99.99,,,-99.99,,2013-07-27 11:02:00,
2013-07-27 06:12:00,81.0,-99.9,29.87,South,177,23.0,26.0,-999,-99.99,,,-99.99,,2013-07-27 11:12:00,
2013-07-27 06:32:00,81.0,-99.9,29.87,South,175,21.0,24.0,-999,-99.99,,,-99.99,,2013-07-27 11:32:00,
2013-07-27 06:44:00,81.0,-99.9,29.87,South,173,21.0,23.0,-999,-99.99,,,-99.99,,2013-07-27 11:44:00,
2013-07-27 06:53:00,81.0,-99.9,29.87,South,172,20.0,24.0,-999,-99.99,,,-99.99,,2013-07-27 11:53:00,
2013-07-27 07:03:00,81.0,-99.9,29.88,South,175,19.0,23.0,-999,-99.99,,,-99.99,,2013-07-27 12:03:00,
2013-07-27 07:13:00,81.0,-99.9,29.88,South,173,20.0,22.0,-999,-99.99,,,-99.99,,2013-07-27 12:13:00,
2013-07-27 07:33:00,81.0,-99.9,29.88,South,177,20.0,25.0,-999,-99.99,,,-99.99,,2013-07-27 12:33:00,
2013-07-27 07:43:00,81.0,-99.9,29.88,South,178,20.0,23.0,-999,-99.99,,,-99.99,,2013-07-27 12:43:00,
2013-07-27 07:52:00,81.0,-99.9,29.88,South,179,20.0,24.0,-999,-99.99,,,-99.99,,2013-07-27 12:52:00,
2013-07-27 08:02:00,81.0,-99.9,29.89,South,179,21.0,24.0,-999,-99.99,,,-99.99,,2013-07-27 13:02:00,
2013-07-27 08:12:00,81.0,-99.9,29.89,South,177,20.0,23.0,-999,-99.99,,,-99.99,,2013-07-27 13:12:00,
2013-07-27 08:32:00,81.0,-99.9,29.90,South,174,20.0,23.0,-999,-99.99,,,-99.99,,2013-07-27 13:32:00,
2013-07-27 08:44:00,81.0,-99.9,29.90,South,173,21.0,24.0,-999,-99.99,,,-99.99,,2013-07-27 13:44:00,
2013-07-27 08:53:00,81.0,-99.9,29.91,South,171,20.0,22.0,-999,-99.99,,,-99.99,,2013-07-27 13:53:00,
2013-07-27 09:02:00,81.0,-99.9,29.91,South,177,19.0,22.0,-999,-99.99,,,-99.99,,2013-07-27 14:02:00,
2013-07-27 09:12:00,81.0,-99.9,29.91,South,175,20.0,22.0,-999,-99.99,,,-99.99,,2013-07-27 14:12:00,
2013-07-27 09:33:00,81.0,-99.9,29.92,South,179,19.0,22.0,-999,-99.99,,,-99.99,,2013-07-27 14:33:00,
2013-07-27 09:44:00,81.0,-99.9,29.92,South,176,19.0,22.0,-999,-99.99,,,-99.99,,2013-07-27 14:44:00,
2013-07-27 09:54:00,81.0,-99.9,29.91,South,178,20.0,23.0,-999,-99.99,,,-99.99,,2013-07-27 14:54:00,
2013-07-27 10:02:00,81.0,-99.9,29.91,South,175,20.0,23.0,-999,-99.99,,,-99.99,,2013-07-27 15:02:00,
2013-07-27 10:12:00,81.0,-99.9,29.91,South,175,20.0,23.0,-999,-99.99,,,-99.99,,2013-07-27 15:12:00,
2013-07-27 10:33:00,81.0,-99.9,29.93,SSE,167,13.0,16.0,-999,-99.99,,,-99.99,,2013-07-27 15:33:00,
2013-07-27 10:44:00,81.0,-99.9,29.93,SSE,168,14.0,17.0,-999,-99.99,,,-99.99,,2013-07-27 15:44:00,
2013-07-27 10:53:00,81.0,-99.9,29.94,SSE,165,12.0,14.0,-999,-99.99,,,-99.99,,2013-07-27 15:53:00,
2013-07-27 11:02:00,81.0,-99.9,29.93,SSE,159,15.0,17.0,-999,-99.99,,,-99.99,,2013-07-27 16:02:00,
2013-07-27 11:12:00,81.0,-99.9,29.93,SSE,158,13.0,17.0,-999,-99.99,,,-99.99,,2013-07-27 16:12:00,
2013-07-27 11:33:00,81.0,-99.9,29.93,SSE,165,11.0,12.0,-999,-99.99,,,-99.99,,2013-07-27 16:33:00,
2013-07-27 11:43:00,81.0,-99.9,29.93,SSE,164,12.0,14.0,-999,-99.99,,,-99.99,,2013-07-27 16:43:00,
2013-07-27 11:54:00,81.0,-99.9,29.93,SSE,162,12.0,14.0,-999,-99.99,,,-99.99,,2013-07-27 16:54:00,
2013-07-27 12:02:00,81.0,-99.9,29.93,SSE,157,14.0,16.0,-999,-99.99,,,-99.99,,2013-07-27 17:02:00,
2013-07-27 12:13:00,81.0,-99.9,29.92,SSE,150,13.0,15.0,-999,-99.99,,,-99.99,,2013-07-27 17:13:00,
2013-07-27 12:32:00,82.0,-99.9,29.92,SSE,149,13.0,16.0,-999,-99.99,,,-99.99,,2013-07-27 17:32:00,
2013-07-27 12:43:00,82.0,-99.9,29.92,SE,145,12.0,14.0,-999,-99.99,,,-99.99,,2013-07-27 17:43:00,
2013-07-27 12:54:00,82.0,-99.9,29.92,SE,145,13.0,15.0,-999,-99.99,,,-99.99,,2013-07-27 17:54:00,
2013-07-27 13:03:00,82.0,-99.9,29.92,SE,143,15.0,17.0,-999,-99.99,,,-99.99,,2013-07-27 18:03:00,
2013-07-27 13:12:00,82.0,-99.9,29.91,SSE,147,16.0,17.0,-999,-99.99,,,-99.99,,2013-07-27 18:12:00,
2013-07-27 13:33:00,82.0,-99.9,29.90,SSE,152,18.0,20.0,-999,-99.99,,,-99.99,,2013-07-27 18:33:00,
2013-07-27 13:43:00,82.0,-99.9,29.90,SSE,150,17.0,21.0,-999,-99.99,,,-99.99,,2013-07-27 18:43:00,
2013-07-27 13:53:00,82.0,-99.9,29.90,SSE,149,19.0,21.0,-999,-99.99,,,-99.99,,2013-07-27 18:53:00,
2013-07-27 14:02:00,82.0,-99.9,29.89,SE,146,18.0,20.0,-999,-99.99,,,-99.99,,2013-07-27 19:02:00,
2013-07-27 14:12:00,82.0,-99.9,29.89,SSE,148,20.0,22.0,-999,-99.99,,,-99.99,,2013-07-27 19:12:00,
2013-07-27 14:32:00,83.0,-99.9,29.88,SSE,149,19.0,22.0,-999,-99.99,,,-99.99,,2013-07-27 19:32:00,
2013-07-27 14:43:00,83.0,-99.9,29.88,SSE,148,19.0,23.0,-999,-99.99,,,-99.99,,2013-07-27 19:43:00,
2013-07-27 14:53:00,83.0,-99.9,29.88,SSE,148,20.0,22.0,-999,-99.99,,,-99.99,,2013-07-27 19:53:00,
2013-07-27 15:02:00,83.0,-99.9,29.88,SSE,148,18.0,22.0,-999,-99.99,,,-99.99,,2013-07-27 20:02:00,
2013-07-27 15:12:00,83.0,-99.9,29.88,SSE,147,19.0,22.0,-999,-99.99,,,-99.99,,2013-07-27 20:12:00,
2013-07-27 15:33:00,83.0,-99.9,29.87,SSE,148,19.0,24.0,-999,-99.99,,,-99.99,,2013-07-27 20:33:00,
2013-07-27 15:43:00,83.0,-99.9,29.87,SE,145,20.0,25.0,-999,-99.99,,,-99.99,,2013-07-27 20:43:00,
2013-07-27 15:52:00,83.0,-99.9,29.87,SE,144,20.0,24.0,-999,-99.99,,,-99.99,,2013-07-27 20:52:00,
2013-07-27 16:03:00,83.0,-99.9,29.86,SE,143,20.0,24.0,-999,-99.99,,,-99.99,,2013-07-27 21:03:00,
2013-07-27 16:12:00,83.0,-99.9,29.86,SE,143,19.0,23.0,-999,-99.99,,,-99.99,,2013-07-27 21:12:00,
2013-07-27 16:33:00,83.0,-99.9,29.85,SE,143,22.0,25.0,-999,-99.99,,,-99.99,,2013-07-27 21:33:00,
2013-07-27 16:43:00,83.0,-99.9,29.85,SE,145,21.0,24.0,-999,-99.99,,,-99.99,,2013-07-27 21:43:00,
2013-07-27 16:53:00,83.0,-99.9,29.84,SE,144,22.0,26.0,-999,-99.99,,,-99.99,,2013-07-27 21:53:00,
2013-07-27 17:02:00,83.0,-99.9,29.83,SE,146,22.0,25.0,-999,-99.99,,,-99.99,,2013-07-27 22:02:00,
2013-07-27 17:13:00,83.0,-99.9,29.83,SE,144,22.0,24.0,-999,-99.99,,,-99.99,,2013-07-27 22:13:00,
2013-07-27 17:33:00,83.0,-99.9,29.82,SE,145,22.0,27.0,-999,-99.99,,,-99.99,,2013-07-27 22:33:00,
2013-07-27 17:43:00,83.0,-99.9,29.82,SSE,147,21.0,25.0,-999,-99.99,,,-99.99,,2013-07-27 22:43:00,
2013-07-27 17:53:00,83.0,-99.9,29.82,SSE,148,22.0,26.0,-999,-99.99,,,-99.99,,2013-07-27 22:53:00,
2013-07-27 18:02:00,83.0,-99.9,29.82,SSE,149,23.0,27.0,-999,-99.99,,,-99.99,,2013-07-27 23:02:00,
2013-07-27 18:12:00,83.0,-99.9,29.82,SSE,147,23.0,27.0,-999,-99.99,,,-99.99,,2013-07-27 23:12:00,
2013-07-27 18:33:00,83.0,-99.9,29.81,SSE,148,27.0,30.0,-999,-99.99,,,-99.99,,2013-07-27 23:33:00,
2013-07-27 18:44:00,83.0,-99.9,29.80,SE,146,24.0,30.0,-999,-99.99,,,-99.99,,2013-07-27 23:44:00,
2013-07-27 18:53:00,83.0,-99.9,29.79,SSE,147,24.0,28.0,-999,-99.99,,,-99.99,,2013-07-27 23:53:00,
2013-07-27 19:02:00,83.0,-99.9,29.80,SSE,147,23.0,28.0,-999,-99.99,,,-99.99,,2013-07-28 00:02:00,
2013-07-27 19:12:00,83.0,-99.9,29.80,SSE,149,25.0,29.0,-999,-99.99,,,-99.99,,2013-07-28 00:12:00,
2013-07-27 19:32:00,83.0,-99.9,29.82,SSE,153,21.0,25.0,-999,-99.99,,,-99.99,,2013-07-28 00:32:00,
2013-07-27 19:44:00,83.0,-99.9,29.81,SSE,152,23.0,27.0,-999,-99.99,,,-99.99,,2013-07-28 00:44:00,
2013-07-27 19:53:00,83.0,-99.9,29.81,SSE,152,20.0,24.0,-999,-99.99,,,-99.99,,2013-07-28 00:53:00,
2013-07-27 20:02:00,83.0,-99.9,29.83,SSE,152,20.0,24.0,-999,-99.99,,,-99.99,,2013-07-28 01:02:00,
2013-07-27 20:12:00,83.0,-99.9,29.83,SSE,149,19.0,23.0,-999,-99.99,,,-99.99,,2013-07-28 01:12:00,
2013-07-27 20:32:00,83.0,-99.9,29.84,SSE,149,19.0,23.0,-999,-99.99,,,-99.99,,2013-07-28 01:32:00,
2013-07-27 20:43:00,83.0,-99.9,29.84,SSE,151,20.0,22.0,-999,-99.99,,,-99.99,,2013-07-28 01:43:00,
2013-07-27 20:53:00,83.0,-99.9,29.84,SSE,150,18.0,22.0,-999,-99.99,,,-99.99,,2013-07-28 01:53:00,
2013-07-27 21:03:00,83.0,-99.9,29.85,SSE,153,20.0,22.0,-999,-99.99,,,-99.99,,2013-07-28 02:03:00,
2013-07-27 21:12:00,83.0,-99.9,29.85,SSE,148,17.0,22.0,-999,-99.99,,,-99.99,,2013-07-28 02:12:00,
2013-07-27 21:32:00,83.0,-99.9,29.85,SSE,151,20.0,22.0,-999,-99.99,,,-99.99,,2013-07-28 02:32:00,
2013-07-27 21:43:00,83.0,-99.9,29.85,SSE,150,21.0,25.0,-999,-99.99,,,-99.99,,2013-07-28 02:43:00,
2013-07-27 21:53:00,83.0,-99.9,29.84,SSE,147,22.0,24.0,-999,-99.99,,,-99.99,,2013-07-28 02:53:00,
2013-07-27 22:03:00,83.0,-99.9,29.83,SSE,148,23.0,26.0,-999,-99.99,,,-99.99,,2013-07-28 03:03:00,
2013-07-27 22:12:00,83.0,-99.9,29.83,SSE,152,22.0,25.0,-999,-99.99,,,-99.99,,2013-07-28 03:12:00,
2013-07-27 22:32:00,83.0,-99.9,29.84,SSE,159,21.0,26.0,-999,-99.99,,,-99.99,,2013-07-28 03:32:00,
2013-07-27 22:43:00,83.0,-99.9,29.84,SSE,157,20.0,26.0,-999,-99.99,,,-99.99,,2013-07-28 03:43:00,
2013-07-27 22:53:00,83.0,-99.9,29.84,SSE,160,21.0,24.0,-999,-99.99,,,-99.99,,2013-07-28 03:53:00,
2013-07-27 23:02:00,82.0,-99.9,29.84,SSE,160,23.0,26.0,-999,-99.99,,,-99.99,,2013-07-28 04:02:00,
2013-07-27 23:12:00,82.0,-99.9,29.84,SSE,157,23.0,26.0,-999,-99.99,,,-99.99,,2013-07-28 04:12:00,
2013-07-27 23:32:00,82.0,-99.9,29.84,SSE,156,21.0,24.0,-999,-99.99,,,-99.99,,2013-07-28 04:32:00,
2013-07-27 23:43:00,82.0,-99.9,29.84,SSE,155,21.0,24.0,-999,-99.99,,,-99.99,,2013-07-28 04:43:00,
2013-07-27 23:53:00,82.0,-99.9,29.84,SSE,156,22.0,24.0,-999,-99.99,,,-99.99,,2013-07-28 04:53:00,